createdAt,value
2023-04-12T00:02:24.009Z,87.94
2023-04-12T00:04:55.625Z,87.98
2023-04-12T00:07:24.991Z,88.31
2023-04-12T00:09:53.106Z,88.29
2023-04-12T00:12:21.012Z,88.29
2023-04-12T00:14:48.972Z,88.36
2023-04-12T00:17:16.718Z,88.06
2023-04-12T00:19:45.118Z,87.73
2023-04-12T00:22:12.900Z,87.68
2023-04-12T00:24:41.138Z,88.09
2023-04-12T00:27:09.336Z,89.73
2023-04-12T00:29:37.168Z,90.82
2023-04-12T00:32:06.014Z,91.48
2023-04-12T00:34:33.725Z,92.31
2023-04-12T00:37:02.262Z,92.58
2023-04-12T00:39:30.031Z,92.75
2023-04-12T00:41:57.909Z,93.06
2023-04-12T00:44:25.908Z,93.19
2023-04-12T00:46:54.443Z,93.46
2023-04-12T00:49:22.267Z,93.53
2023-04-12T00:51:50.009Z,93.46
2023-04-12T00:54:18.390Z,93.87
2023-04-12T00:56:47.362Z,93.95
2023-04-12T00:59:15.399Z,94.01
2023-04-12T01:01:43.121Z,93.85
2023-04-12T01:04:14.120Z,94.19
2023-04-12T01:06:56.203Z,94.15
2023-04-12T01:09:36.299Z,94.13
2023-04-12T01:12:09.145Z,94.07
2023-04-12T01:14:58.483Z,93.95
2023-04-12T01:17:31.408Z,93.77
2023-04-12T01:20:16.819Z,93.71
2023-04-12T01:22:54.855Z,93.87
2023-04-12T01:25:44.820Z,93.82
2023-04-12T01:28:18.973Z,93.44
2023-04-12T01:30:49.933Z,93.33
2023-04-12T01:33:18.965Z,93.14
2023-04-12T01:35:48.894Z,93.11
2023-04-12T01:38:16.810Z,92.91
2023-04-12T01:40:44.741Z,92.88
2023-04-12T01:43:14.809Z,92.64
2023-04-12T01:45:42.685Z,92.46
2023-04-12T01:48:12.183Z,92.31
2023-04-12T01:50:53.153Z,92.28
2023-04-12T01:53:32.929Z,92.25
2023-04-12T01:56:07.482Z,92.22
2023-04-12T01:58:37.597Z,91.83
2023-04-12T02:01:07.348Z,91.76
2023-04-12T02:03:37.563Z,91.64
2023-04-12T02:06:06.855Z,91.22
2023-04-12T02:08:35.692Z,91.08
2023-04-12T02:11:10.756Z,91.38
2023-04-12T02:13:38.632Z,91.69
2023-04-12T02:16:08.000Z,91.93
2023-04-12T02:18:36.031Z,91.92
2023-04-12T02:21:03.817Z,92.06
2023-04-12T02:23:31.525Z,91.89
2023-04-12T02:25:59.170Z,91.90
2023-04-12T02:28:27.196Z,91.74
2023-04-12T02:30:55.021Z,91.62
2023-04-12T02:33:25.460Z,91.23
2023-04-12T02:35:53.361Z,90.85
2023-04-12T02:38:21.081Z,90.98
2023-04-12T02:40:48.954Z,91.02
2023-04-12T02:43:16.734Z,90.79
2023-04-12T02:45:44.521Z,90.66
2023-04-12T02:48:12.468Z,90.29
2023-04-12T02:50:40.283Z,90.59
2023-04-12T02:53:07.996Z,90.78
2023-04-12T02:55:36.834Z,90.76
2023-04-12T02:58:04.673Z,90.90
2023-04-12T03:00:32.352Z,91.15
2023-04-12T03:03:03.058Z,91.03
2023-04-12T03:05:31.478Z,90.89
2023-04-12T03:07:59.268Z,90.70
2023-04-12T03:10:27.516Z,90.70
2023-04-12T03:12:55.295Z,90.68
2023-04-12T03:15:23.616Z,90.91
2023-04-12T03:17:51.783Z,91.32
2023-04-12T03:20:20.505Z,91.35
2023-04-12T03:22:48.327Z,91.36
2023-04-12T03:25:18.566Z,91.52
2023-04-12T03:27:46.784Z,91.48
2023-04-12T03:30:14.624Z,91.27
2023-04-12T03:32:42.666Z,91.11
2023-04-12T03:35:10.766Z,91.07
2023-04-12T03:37:42.716Z,90.77
2023-04-12T03:40:11.022Z,90.97
2023-04-12T03:42:38.799Z,90.82
2023-04-12T03:45:06.993Z,91.04
2023-04-12T03:47:34.955Z,91.16
2023-04-12T03:50:11.015Z,91.16
2023-04-12T03:52:40.228Z,91.35
2023-04-12T03:55:08.565Z,91.17
2023-04-12T03:57:36.425Z,90.95
2023-04-12T04:00:04.693Z,90.80
2023-04-12T04:02:32.553Z,90.73
2023-04-12T04:05:02.515Z,90.84
2023-04-12T04:07:31.995Z,90.70
2023-04-12T04:10:00.035Z,90.78
2023-04-12T04:12:28.264Z,90.67
2023-04-12T04:14:56.017Z,90.30
2023-04-12T04:17:23.815Z,89.82
2023-04-12T04:19:51.561Z,89.93
2023-04-12T04:22:22.944Z,90.04
2023-04-12T04:24:51.760Z,90.06
2023-04-12T04:27:20.589Z,90.32
2023-04-12T04:29:48.436Z,90.23
2023-04-12T04:32:16.112Z,90.12
2023-04-12T04:34:44.050Z,89.78
2023-04-12T04:37:12.508Z,89.65
2023-04-12T04:39:40.184Z,89.23
2023-04-12T04:42:08.065Z,89.31
2023-04-12T04:44:36.260Z,89.56
2023-04-12T04:47:05.230Z,89.49
2023-04-12T04:49:33.902Z,89.25
2023-04-12T04:52:02.374Z,89.42
2023-04-12T04:54:31.955Z,89.24
2023-04-12T04:56:59.691Z,88.76
2023-04-12T04:59:27.755Z,88.77
2023-04-12T05:01:55.667Z,88.82
2023-04-12T05:04:23.470Z,88.78
2023-04-12T05:06:53.791Z,88.63
2023-04-12T05:09:45.520Z,88.80
2023-04-12T05:12:13.313Z,88.39
2023-04-12T05:14:47.948Z,88.10
2023-04-12T05:17:19.233Z,87.79
2023-04-12T05:19:46.967Z,87.40
2023-04-12T05:22:14.881Z,87.12
2023-04-12T05:24:42.747Z,86.64
2023-04-12T05:27:10.602Z,86.38
2023-04-12T05:29:38.328Z,86.04
2023-04-12T05:32:06.432Z,85.45
2023-04-12T05:34:34.155Z,85.12
2023-04-12T05:37:02.440Z,85.27
2023-04-12T05:39:31.128Z,85.14
2023-04-12T05:41:58.918Z,84.80
2023-04-12T05:44:26.715Z,84.80
2023-04-12T05:46:54.556Z,84.46
2023-04-12T05:49:22.303Z,83.91
2023-04-12T05:51:50.117Z,83.60
2023-04-12T05:54:21.067Z,83.22
2023-04-12T05:56:48.881Z,82.86
2023-04-12T05:59:19.624Z,83.20
2023-04-12T06:01:47.464Z,82.21
2023-04-12T06:04:15.874Z,80.93
2023-04-12T06:06:43.997Z,80.73
2023-04-12T06:09:12.530Z,80.36
2023-04-12T06:11:40.275Z,80.91
2023-04-12T06:14:10.571Z,80.69
2023-04-12T06:16:42.915Z,80.95
2023-04-12T06:19:12.665Z,80.55
2023-04-12T06:21:41.144Z,80.90
2023-04-12T06:24:09.073Z,80.87
2023-04-12T06:26:40.108Z,80.08
2023-04-12T06:29:08.288Z,79.38
2023-04-12T06:33:23.522Z,79.25
2023-04-12T06:37:24.107Z,79.05
2023-04-12T06:40:41.020Z,79.03
2023-04-12T06:44:51.771Z,79.42
2023-04-12T06:48:04.175Z,79.51
2023-04-12T07:16:18.578Z,74.91
2023-04-12T07:23:57.437Z,75.50
2023-04-12T07:38:26.097Z,73.83
2023-04-12T07:41:06.467Z,73.72
2023-04-12T07:44:47.137Z,73.22
2023-04-12T07:59:11.925Z,70.20
2023-04-12T08:02:12.397Z,70.62
2023-04-12T08:16:03.711Z,69.25
2023-04-12T08:19:01.842Z,69.38
2023-04-12T08:32:54.821Z,71.10
2023-04-12T08:35:40.187Z,73.54
2023-04-12T08:58:16.863Z,70.99
2023-04-12T09:12:18.638Z,70.21
2023-04-12T09:15:17.780Z,71.93
2023-04-12T09:17:45.748Z,72.33
2023-04-12T09:20:15.711Z,70.23
2023-04-12T09:22:48.360Z,67.73
2023-04-12T09:25:16.110Z,66.64
2023-04-12T09:29:27.052Z,63.80
2023-04-12T09:32:09.186Z,63.48
2023-04-12T09:34:39.362Z,62.03
2023-04-12T09:37:17.193Z,57.48
2023-04-12T09:39:44.158Z,57.27
2023-04-12T09:42:29.247Z,56.00
2023-04-12T09:45:22.412Z,56.50
2023-04-12T09:47:52.877Z,57.79
2023-04-12T09:50:33.852Z,57.47
2023-04-12T09:53:04.301Z,57.01
2023-04-12T09:55:32.828Z,54.78
2023-04-12T10:06:41.565Z,46.07
2023-04-12T10:09:08.826Z,47.01
2023-04-12T10:11:36.925Z,48.27
2023-04-12T10:14:05.451Z,50.19
2023-04-12T10:16:34.419Z,52.63
2023-04-12T10:19:05.385Z,52.98
2023-04-12T10:21:32.477Z,53.04
2023-04-12T10:24:02.656Z,54.11
2023-04-12T10:26:30.966Z,55.97
2023-04-12T10:29:26.013Z,56.09
2023-04-12T10:36:19.456Z,59.22
2023-04-12T10:40:38.904Z,59.27
2023-04-12T10:43:19.859Z,58.66
2023-04-12T10:45:50.307Z,59.39
2023-04-12T10:48:33.455Z,59.11
2023-04-12T10:51:18.479Z,58.30
2023-04-12T10:53:47.542Z,58.38
2023-04-12T10:56:48.528Z,58.20
2023-04-12T10:59:17.262Z,55.21
2023-04-12T11:02:17.952Z,56.89
2023-04-12T11:05:10.241Z,54.89
2023-04-12T11:07:46.316Z,53.01
2023-04-12T11:10:21.775Z,53.24
2023-04-12T11:12:57.362Z,54.37
2023-04-12T11:15:29.030Z,54.12
2023-04-12T11:17:57.902Z,53.64
2023-04-12T11:20:27.672Z,53.42
2023-04-12T11:22:56.073Z,52.60
2023-04-12T11:25:24.441Z,51.18
2023-04-12T11:27:54.997Z,50.04
2023-04-12T11:30:25.601Z,50.90
2023-04-12T11:32:53.375Z,51.30
2023-04-12T11:35:27.393Z,52.74
2023-04-12T11:37:57.508Z,52.22
2023-04-12T11:40:26.227Z,49.12
2023-04-12T11:42:57.019Z,45.62
2023-04-12T11:45:24.955Z,43.68
2023-04-12T11:47:55.019Z,45.23
2023-04-12T11:50:30.925Z,44.20
2023-04-12T11:53:10.969Z,44.00
2023-04-12T11:55:38.990Z,45.13
2023-04-12T11:58:07.390Z,44.89
2023-04-12T12:00:35.645Z,43.26
2023-04-12T12:03:07.762Z,40.23
2023-04-12T12:05:38.479Z,38.49
2023-04-12T12:08:08.726Z,37.44
2023-04-12T12:10:49.242Z,37.36
2023-04-12T12:13:23.795Z,37.63
2023-04-12T12:15:52.739Z,38.17
2023-04-12T12:18:26.400Z,36.16
2023-04-12T12:20:55.844Z,34.31
2023-04-12T12:23:48.944Z,33.44
2023-04-12T12:26:28.094Z,33.46
2023-04-12T12:29:00.669Z,34.19
2023-04-12T12:31:29.050Z,34.37
2023-04-12T12:33:59.334Z,33.89
2023-04-12T12:36:36.210Z,33.76
2023-04-12T12:39:10.819Z,34.68
2023-04-12T12:41:40.129Z,35.32
2023-04-12T12:44:09.068Z,36.18
2023-04-12T12:49:08.302Z,38.11
2023-04-12T12:51:36.606Z,37.81
2023-04-12T12:54:04.491Z,36.82
2023-04-12T12:56:32.740Z,35.75
2023-04-12T12:59:01.021Z,36.47
2023-04-12T13:01:31.529Z,36.11
2023-04-12T13:04:01.404Z,34.99
2023-04-12T13:06:29.618Z,35.94
2023-04-12T13:09:06.122Z,37.39
2023-04-12T13:11:34.255Z,37.58
2023-04-12T13:14:05.436Z,38.39
2023-04-12T13:18:26.985Z,37.28
2023-04-12T13:22:19.266Z,36.35
2023-04-12T13:25:44.385Z,36.58
2023-04-12T13:28:12.934Z,36.79
2023-04-12T13:30:42.083Z,36.24
2023-04-12T13:33:13.027Z,37.80
2023-04-12T13:35:45.440Z,37.97
2023-04-12T13:38:14.987Z,38.11
2023-04-12T13:40:43.118Z,38.89
2023-04-12T13:43:12.850Z,38.20
2023-04-12T13:45:41.031Z,37.62
2023-04-12T13:48:09.978Z,37.05
2023-04-12T13:50:38.190Z,37.19
2023-04-12T13:53:06.342Z,38.44
2023-04-12T13:55:34.231Z,39.15
2023-04-12T13:58:02.096Z,39.63
2023-04-12T14:01:10.988Z,40.17
2023-04-12T14:03:39.895Z,40.20
2023-04-12T14:06:07.992Z,41.21
2023-04-12T14:12:57.012Z,42.36
2023-04-12T14:21:07.492Z,37.54
2023-04-12T14:24:50.061Z,39.09
2023-04-12T14:39:30.794Z,35.91
2023-04-12T14:52:34.935Z,33.06
2023-04-12T14:55:27.664Z,35.34
2023-04-12T14:59:29.808Z,37.72
2023-04-12T15:03:00.177Z,41.86
2023-04-12T15:06:16.437Z,43.85
2023-04-12T15:09:58.700Z,41.19
2023-04-12T15:13:34.470Z,42.69
2023-04-12T15:17:21.145Z,38.66
2023-04-12T15:20:53.660Z,39.47
2023-04-12T15:24:31.134Z,43.65
2023-04-12T15:28:17.497Z,46.43
2023-04-12T15:31:42.857Z,47.60
2023-04-12T15:34:11.815Z,47.49
2023-04-12T15:36:43.822Z,47.71
2023-04-12T15:39:12.731Z,48.66
2023-04-12T15:41:42.418Z,49.03
2023-04-12T15:47:03.156Z,50.37
2023-04-12T15:49:42.173Z,51.26
2023-04-12T15:52:10.264Z,51.81
2023-04-12T15:54:43.570Z,51.89
2023-04-12T15:57:12.091Z,51.02
2023-04-12T15:59:42.301Z,50.12
2023-04-12T16:02:10.614Z,48.42
2023-04-12T16:04:39.601Z,44.16
2023-04-12T16:07:08.202Z,41.85
2023-04-12T16:10:50.829Z,41.48
2023-04-12T16:13:18.893Z,42.38
2023-04-12T16:15:47.624Z,44.39
2023-04-12T16:18:17.212Z,46.16
2023-04-12T16:20:45.450Z,48.10
2023-04-12T16:23:13.590Z,47.39
2023-04-12T16:25:41.633Z,46.09
2023-04-12T16:28:09.499Z,46.29
2023-04-12T16:30:37.672Z,48.05
2023-04-12T16:33:05.584Z,47.71
2023-04-12T16:35:33.415Z,47.41
2023-04-12T16:38:02.232Z,48.20
2023-04-12T16:40:29.991Z,49.20
2023-04-12T16:45:04.614Z,51.96
2023-04-12T16:47:32.434Z,53.22
2023-04-12T16:50:00.298Z,53.82
2023-04-12T16:52:28.204Z,53.96
2023-04-12T16:54:57.263Z,54.38
2023-04-12T16:57:25.097Z,55.20
2023-04-12T17:00:23.244Z,55.04
2023-04-12T17:02:53.438Z,55.83
2023-04-12T17:05:22.995Z,55.86
2023-04-12T17:07:54.028Z,56.61
2023-04-12T17:10:24.557Z,57.00
2023-04-12T17:12:55.452Z,56.98
2023-04-12T17:15:25.415Z,57.53
2023-04-12T17:27:02.929Z,59.32
2023-04-12T17:29:32.373Z,60.18
2023-04-12T17:32:26.094Z,60.12
2023-04-12T17:34:57.187Z,60.22
2023-04-12T17:37:26.224Z,60.41
2023-04-12T17:39:54.301Z,60.79
2023-04-12T17:42:23.129Z,60.69
2023-04-12T17:44:51.396Z,61.14
2023-04-12T17:47:19.833Z,60.74
2023-04-12T17:52:17.330Z,61.07
2023-04-12T17:55:55.159Z,61.80
2023-04-12T17:59:53.714Z,62.16
2023-04-12T18:02:20.805Z,62.46
2023-04-12T18:04:48.049Z,62.19
2023-04-12T18:07:15.942Z,62.04
2023-04-12T18:09:44.024Z,61.91
2023-04-12T18:12:13.688Z,61.93
2023-04-12T18:14:40.507Z,62.42
2023-04-12T18:17:07.892Z,62.31
2023-04-12T18:19:34.449Z,62.26
2023-04-12T18:22:01.123Z,61.41
2023-04-12T18:24:30.517Z,61.48
2023-04-12T18:26:58.649Z,62.10
2023-04-12T18:29:25.582Z,61.78
2023-04-12T18:31:52.498Z,62.50
2023-04-12T18:34:19.221Z,62.60
2023-04-12T18:36:45.759Z,62.62
2023-04-12T18:39:14.166Z,62.50
2023-04-12T18:41:41.726Z,61.94
2023-04-12T18:44:09.008Z,62.40
2023-04-12T18:46:36.049Z,62.50
2023-04-12T18:49:04.628Z,62.48
2023-04-12T18:51:32.518Z,63.45
2023-04-12T18:57:00.117Z,65.56
2023-04-12T18:59:26.879Z,66.65
2023-04-12T19:01:53.848Z,67.27
2023-04-12T19:04:21.137Z,67.42
2023-04-12T19:06:47.626Z,67.51
2023-04-12T19:10:30.733Z,68.25
2023-04-12T19:12:59.609Z,69.10
2023-04-12T19:15:27.643Z,69.32
2023-04-12T19:17:56.109Z,69.26
2023-04-12T19:20:23.922Z,69.25
2023-04-12T19:22:52.724Z,68.82
2023-04-12T19:25:20.987Z,69.01
2023-04-12T19:27:48.810Z,69.20
2023-04-12T19:30:17.187Z,68.82
2023-04-12T19:32:45.014Z,69.41
2023-04-12T19:35:14.970Z,69.44
2023-04-12T19:37:42.757Z,69.34
2023-04-12T19:40:12.538Z,69.25
2023-04-12T19:42:41.649Z,69.21
2023-04-12T19:45:09.825Z,68.92
2023-04-12T19:47:44.685Z,68.96
2023-04-12T19:50:19.691Z,68.19
2023-04-12T19:52:48.690Z,68.27
2023-04-12T19:55:16.832Z,68.95
2023-04-12T19:57:45.123Z,69.20
2023-04-12T20:00:19.573Z,69.48
2023-04-12T20:02:49.244Z,69.51
2023-04-12T20:05:17.962Z,69.40
2023-04-12T20:07:45.921Z,69.68
2023-04-12T20:10:15.352Z,69.90
2023-04-12T20:12:43.267Z,69.80
2023-04-12T20:15:14.596Z,69.84
2023-04-12T20:17:43.107Z,69.85
2023-04-12T20:20:12.583Z,70.24
2023-04-12T20:22:42.906Z,70.54
2023-04-12T20:25:11.414Z,70.62
2023-04-12T20:27:39.366Z,70.45
2023-04-12T20:30:09.527Z,70.38
2023-04-12T20:32:37.535Z,70.62
2023-04-12T20:35:06.678Z,70.46
2023-04-12T20:37:36.525Z,70.51
2023-04-12T20:40:07.231Z,70.55
2023-04-12T20:42:35.605Z,70.79
2023-04-12T20:45:03.657Z,70.97
2023-04-12T20:47:33.273Z,70.87
2023-04-12T20:50:03.752Z,71.12
2023-04-12T20:52:31.815Z,71.50
2023-04-12T20:54:59.791Z,71.64
2023-04-12T20:57:27.818Z,72.13
2023-04-12T20:59:57.350Z,72.38
2023-04-12T21:02:25.688Z,72.61
2023-04-12T21:04:54.120Z,72.72
2023-04-12T21:07:25.982Z,73.18
2023-04-12T21:09:53.851Z,73.94
2023-04-12T21:12:21.682Z,74.63
2023-04-12T21:14:50.428Z,74.87
2023-04-12T21:17:22.516Z,75.05
2023-04-12T21:19:51.093Z,75.16
2023-04-12T21:22:18.719Z,75.36
2023-04-12T21:24:46.518Z,75.78
2023-04-12T21:27:14.536Z,76.12
2023-04-12T21:29:42.312Z,76.14
2023-04-12T21:32:10.149Z,76.27
2023-04-12T21:34:39.281Z,76.51
2023-04-12T21:37:07.689Z,76.77
2023-04-12T21:39:35.463Z,77.05
2023-04-12T21:42:03.352Z,77.54
2023-04-12T21:44:34.469Z,77.67
2023-04-12T21:47:02.158Z,77.90
2023-04-12T21:49:30.807Z,78.12
2023-04-12T21:51:59.232Z,78.65
2023-04-12T21:54:31.387Z,78.81
2023-04-12T21:56:58.945Z,79.23
2023-04-12T21:59:26.645Z,79.76
2023-04-12T22:01:54.411Z,80.24
2023-04-12T22:04:22.189Z,79.91
2023-04-12T22:06:51.723Z,79.99
2023-04-12T22:09:20.365Z,79.86
2023-04-12T22:11:49.182Z,80.11
2023-04-12T22:14:16.956Z,80.54
2023-04-12T22:16:45.399Z,80.66
2023-04-12T22:19:13.232Z,81.04
2023-04-12T22:21:41.474Z,81.26
2023-04-12T22:24:09.214Z,81.61
2023-04-12T22:26:36.921Z,81.66
2023-04-12T22:29:06.274Z,81.90
2023-04-12T22:31:34.703Z,82.09
2023-04-12T22:34:02.434Z,82.36
2023-04-12T22:36:37.124Z,82.78
2023-04-12T22:39:04.865Z,83.04
2023-04-12T22:41:35.110Z,83.25
2023-04-12T22:44:03.042Z,83.26
2023-04-12T22:46:33.503Z,83.31
2023-04-12T22:49:01.222Z,83.63
2023-04-12T22:51:29.095Z,83.74
2023-04-12T22:53:57.114Z,84.23
2023-04-12T22:56:25.899Z,84.39
2023-04-12T22:58:53.883Z,84.43
2023-04-12T23:01:21.626Z,84.41
2023-04-12T23:03:49.317Z,84.66
2023-04-12T23:06:17.056Z,84.87
2023-04-12T23:08:44.923Z,84.53
2023-04-12T23:11:14.401Z,84.83
2023-04-12T23:13:42.076Z,85.23
2023-04-12T23:16:10.099Z,85.66
2023-04-12T23:18:38.843Z,85.84
2023-04-12T23:21:06.940Z,86.36
2023-04-12T23:23:34.561Z,86.58
2023-04-12T23:26:02.687Z,86.33
2023-04-12T23:28:31.021Z,86.36
2023-04-12T23:31:01.746Z,86.34
2023-04-12T23:33:29.338Z,86.35
2023-04-12T23:35:57.167Z,86.47
2023-04-12T23:38:31.916Z,86.98
2023-04-12T23:41:02.556Z,87.13
2023-04-12T23:43:32.569Z,86.92
2023-04-12T23:46:02.124Z,87.22
2023-04-12T23:48:30.464Z,87.76
2023-04-12T23:50:59.910Z,88.17
2023-04-12T23:53:27.603Z,88.18
2023-04-12T23:55:55.461Z,88.29
2023-04-12T23:58:23.425Z,88.05
